Time;durP1;ratioP1;P1;durP2;ratioP2;P2;SDS_P1;SDS_P2;PMS_P1;PMS_P2;Temp;Humidity;BMP_temperature;BMP_pressure;BME280_temperature;BME280_humidity;BME280_pressure;Samples;Min_cycle;Max_cycle;Signal;HPM_P1;HPM_P2
2022/04/24 00:01:06;;;;;;;5.60;3.40;;;;;;;8.09;100.00;94982.94;5021308;28;20055;-70
2022/04/24 00:03:33;;;;;;;6.32;3.50;;;;;;;8.05;100.00;94985.34;5024036;28;20040;-70
2022/04/24 00:05:58;;;;;;;5.22;3.22;;;;;;;8.03;100.00;94984.81;5024776;28;20072;-70
2022/04/24 00:08:24;;;;;;;6.93;3.50;;;;;;;8.01;100.00;94973.63;5021621;28;20151;-70
2022/04/24 00:10:50;;;;;;;5.25;3.05;;;;;;;7.99;100.00;94985.63;5020855;28;20061;-71
2022/04/24 00:13:16;;;;;;;4.80;3.15;;;;;;;7.96;100.00;94970.97;5022218;28;20065;-69
2022/04/24 00:15:41;;;;;;;5.65;2.38;;;;;;;7.88;100.00;94968.84;5021686;28;20171;-70
2022/04/24 00:18:07;;;;;;;5.28;3.10;;;;;;;7.87;100.00;94971.78;5023377;28;20041;-70
2022/04/24 00:20:34;;;;;;;4.95;3.40;;;;;;;7.85;100.00;94968.56;5022404;28;20049;-70
2022/04/24 00:22:59;;;;;;;4.97;2.88;;;;;;;7.78;100.00;94956.34;5024267;28;20498;-70
2022/04/24 00:25:25;;;;;;;8.85;3.40;;;;;;;7.78;100.00;94964.34;5050421;28;20107;-70
2022/04/24 00:27:50;;;;;;;4.95;3.10;;;;;;;7.76;100.00;94961.13;5022923;28;20451;-71
2022/04/24 00:30:16;;;;;;;4.70;2.85;;;;;;;7.77;100.00;94956.59;5020993;28;20042;-69
2022/04/24 00:32:41;;;;;;;7.60;3.45;;;;;;;7.75;100.00;94958.72;5038982;28;20477;-70
2022/04/24 00:35:07;;;;;;;6.63;3.25;;;;;;;7.70;100.00;94956.06;5024062;28;20329;-70
2022/04/24 00:37:33;;;;;;;5.40;3.10;;;;;;;7.64;100.00;94957.16;5019995;28;20467;-69
2022/04/24 00:39:59;;;;;;;6.65;3.70;;;;;;;7.66;100.00;94949.69;5022682;28;20111;-70
2022/04/24 00:42:24;;;;;;;6.55;3.30;;;;;;;7.70;100.00;94946.19;5018915;28;20041;-69
2022/04/24 00:44:50;;;;;;;6.55;3.10;;;;;;;7.62;100.00;94933.44;5029985;28;20415;-69
2022/04/24 00:47:44;;;;;;;;;;;;;;;7.66;100.00;94937.16;5022340;28;20042;-70
2022/04/24 00:50:12;;;;;;;5.38;3.40;;;;;;;7.69;100.00;94936.63;5021752;28;19921;-70
2022/04/24 00:52:38;;;;;;;6.47;3.30;;;;;;;7.69;100.00;94943.81;5023702;28;20495;-70
2022/04/24 00:55:07;;;;;;;5.82;3.25;;;;;;;7.69;100.00;94938.47;5024632;28;20041;-70
2022/04/24 00:57:33;;;;;;;5.60;3.45;;;;;;;7.72;100.00;94941.44;5024023;28;20079;-71
2022/04/24 00:59:59;;;;;;;6.00;3.17;;;;;;;7.67;100.00;94935.31;5022553;28;20128;-70
2022/04/24 01:02:24;;;;;;;5.57;3.42;;;;;;;7.67;100.00;94937.97;5023375;28;20067;-71
2022/04/24 01:04:50;;;;;;;7.07;3.83;;;;;;;7.65;100.00;94932.13;5023577;28;20477;-71
2022/04/24 01:07:15;;;;;;;5.25;3.28;;;;;;;7.66;100.00;94939.81;5020221;28;20503;-70
2022/04/24 01:09:41;;;;;;;4.82;3.17;;;;;;;7.68;100.00;94929.69;5021994;28;20661;-70
2022/04/24 01:12:07;;;;;;;5.25;3.33;;;;;;;7.67;100.00;94935.31;5020330;28;20497;-71
2022/04/24 01:14:34;;;;;;;5.57;3.42;;;;;;;7.63;100.00;94935.03;5023190;28;20412;-69
2022/04/24 01:17:02;;;;;;;6.38;3.53;;;;;;;7.62;100.00;94937.94;5023225;28;20472;-69
2022/04/24 01:19:28;;;;;;;5.80;3.60;;;;;;;7.60;100.00;94929.44;5021485;28;20048;-69
2022/04/24 01:21:55;;;;;;;7.53;3.45;;;;;;;7.53;100.00;94925.19;5023245;28;20045;-69
2022/04/24 01:24:26;;;;;;;5.68;3.22;;;;;;;7.53;100.00;94927.84;5021667;28;20044;-69
2022/04/24 01:26:52;;;;;;;4.90;2.90;;;;;;;7.57;100.00;94930.78;5020376;28;20473;-70
2022/04/24 01:29:18;;;;;;;5.30;3.20;;;;;;;7.54;100.00;94929.44;5020595;28;20504;-69
2022/04/24 01:31:45;;;;;;;12.27;3.40;;;;;;;7.53;100.00;94930.50;5021707;28;20049;-69
2022/04/24 01:34:11;;;;;;;6.55;3.38;;;;;;;7.44;100.00;94929.44;5053269;28;20041;-69
2022/04/24 01:36:37;;;;;;;6.93;3.50;;;;;;;7.48;100.00;94930.50;5020661;28;20039;-70
2022/04/24 01:39:04;;;;;;;4.32;3.00;;;;;;;7.43;100.00;94927.84;5020088;28;20034;-71
2022/04/24 01:41:31;;;;;;;6.45;3.30;;;;;;;7.41;100.00;94927.31;5021299;28;20180;-70
2022/04/24 01:43:57;;;;;;;5.25;3.20;;;;;;;7.40;100.00;94932.91;5022671;28;20488;-69
2022/04/24 01:46:23;;;;;;;10.45;3.45;;;;;;;7.40;100.00;94935.56;5019871;28;20036;-69
2022/04/24 01:48:49;;;;;;;5.07;3.42;;;;;;;7.33;100.00;94935.81;5023657;28;20056;-69
2022/04/24 01:51:15;;;;;;;6.53;3.70;;;;;;;7.37;100.00;94934.22;5023580;28;20075;-71
2022/04/24 01:53:40;;;;;;;7.85;3.72;;;;;;;7.35;100.00;94939.00;5025457;28;20025;-69
2022/04/24 01:56:09;;;;;;;4.50;2.90;;;;;;;7.37;100.00;94936.88;5022363;28;20049;-70
2022/04/24 01:58:35;;;;;;;6.00;3.30;;;;;;;7.38;100.00;94940.34;5025228;28;20115;-69
2022/04/24 02:01:01;;;;;;;6.53;3.33;;;;;;;7.40;100.00;94938.22;5026982;28;20068;-71
2022/04/24 02:03:28;;;;;;;6.65;3.42;;;;;;;7.44;100.00;94939.28;5023495;28;20034;-70
2022/04/24 02:05:54;;;;;;;6.25;3.00;;;;;;;7.47;100.00;94939.56;5027801;28;20030;-71
2022/04/24 02:08:20;;;;;;;6.63;3.78;;;;;;;7.48;100.00;94938.50;5024985;28;20041;-70
2022/04/24 02:10:45;;;;;;;6.07;3.38;;;;;;;7.50;100.00;94933.69;5029536;28;20037;-69
2022/04/24 02:13:11;;;;;;;5.88;3.53;;;;;;;7.50;100.00;94939.03;5027395;28;20443;-70
2022/04/24 02:15:36;;;;;;;5.90;3.53;;;;;;;7.50;100.00;94932.91;5023232;28;20041;-69
2022/04/24 02:18:03;;;;;;;6.10;3.55;;;;;;;7.50;100.00;94924.91;5024325;28;20045;-71
2022/04/24 02:20:29;;;;;;;6.53;3.47;;;;;;;7.51;100.00;94929.97;5022067;28;20045;-69
2022/04/24 02:22:57;;;;;;;5.60;3.65;;;;;;;7.50;100.00;94932.91;5025872;28;20313;-70
2022/04/24 02:25:24;;;;;;;6.75;4.35;;;;;;;7.51;100.00;94927.31;5025215;28;20041;-69
2022/04/24 02:27:50;;;;;;;5.57;3.83;;;;;;;7.53;100.00;94925.19;5024929;28;20098;-70
2022/04/24 02:30:15;;;;;;;6.68;3.70;;;;;;;7.52;100.00;94926.25;5020043;28;20704;-70
2022/04/24 02:32:41;;;;;;;5.43;3.70;;;;;;;7.51;100.00;94924.66;5054613;28;20164;-70
2022/04/24 02:35:06;;;;;;;7.18;3.58;;;;;;;7.60;100.00;94924.13;5026519;28;20049;-70
2022/04/24 02:37:32;;;;;;;5.90;3.63;;;;;;;7.63;100.00;94916.41;5024380;28;20041;-69
2022/04/24 02:39:58;;;;;;;6.18;3.35;;;;;;;7.67;100.00;94911.34;5024275;28;20247;-69
2022/04/24 02:42:24;;;;;;;5.38;3.53;;;;;;;7.64;100.00;94903.91;5024665;28;20048;-69
2022/04/24 02:44:50;;;;;;;9.40;3.75;;;;;;;7.73;100.00;94915.59;5023386;28;20041;-71
2022/04/24 02:47:15;;;;;;;7.65;3.55;;;;;;;7.71;100.00;94915.06;5023295;28;20045;-69
2022/04/24 02:49:41;;;;;;;5.68;3.80;;;;;;;7.70;100.00;94910.78;5023497;28;20107;-70
2022/04/24 02:52:07;;;;;;;6.75;3.88;;;;;;;7.68;100.00;94911.06;5024733;28;20714;-71
2022/04/24 02:54:32;;;;;;;6.35;4.00;;;;;;;7.71;100.00;94910.56;5026214;28;20033;-70
2022/04/24 02:56:58;;;;;;;7.07;3.88;;;;;;;7.75;100.00;94911.59;5024843;28;20051;-69
2022/04/24 02:59:25;;;;;;;8.48;4.00;;;;;;;7.78;100.00;94908.41;5023329;28;20039;-70
2022/04/24 03:01:52;;;;;;;6.93;4.07;;;;;;;7.80;100.00;94910.81;5028484;28;20475;-69
2022/04/24 03:04:19;;;;;;;7.43;3.65;;;;;;;7.86;100.00;94909.75;5024738;28;20454;-70
2022/04/24 03:06:45;;;;;;;5.53;3.70;;;;;;;7.82;100.00;94908.66;5023999;28;20465;-69
2022/04/24 03:09:11;;;;;;;6.68;4.32;;;;;;;7.78;100.00;94894.28;5023592;28;20116;-72
2022/04/24 03:11:36;;;;;;;5.80;3.80;;;;;;;7.81;100.00;94899.09;5022329;28;20342;-70
2022/04/24 03:14:02;;;;;;;5.95;3.95;;;;;;;7.84;100.00;94898.53;5025166;28;20049;-71
2022/04/24 03:16:28;;;;;;;5.90;3.42;;;;;;;7.78;100.00;94900.44;5022975;28;20476;-69
2022/04/24 03:18:53;;;;;;;6.65;3.90;;;;;;;7.78;100.00;94904.94;5024132;28;20057;-69
2022/04/24 03:21:19;;;;;;;6.05;4.13;;;;;;;7.78;100.00;94900.44;5023121;28;20043;-69
2022/04/24 03:23:44;;;;;;;7.13;4.32;;;;;;;7.83;100.00;94904.94;5024054;28;20036;-69
2022/04/24 03:26:13;;;;;;;7.57;4.10;;;;;;;7.84;100.00;94906.53;5021553;28;20037;-70
2022/04/24 03:28:40;;;;;;;6.15;4.10;;;;;;;7.76;100.00;94896.41;5022780;28;20048;-69
2022/04/24 03:31:05;;;;;;;6.10;3.97;;;;;;;7.75;100.00;94900.94;5021668;28;20076;-70
2022/04/24 03:33:31;;;;;;;8.88;4.32;;;;;;;7.77;100.00;94900.66;5026058;28;20427;-70
2022/04/24 03:35:57;;;;;;;6.32;4.13;;;;;;;7.77;100.00;94911.31;5025347;28;20527;-70
2022/04/24 03:38:22;;;;;;;6.78;4.22;;;;;;;7.78;100.00;94910.25;5022052;28;20450;-70
2022/04/24 03:40:47;;;;;;;7.28;4.53;;;;;;;7.81;100.00;94917.72;5021470;28;20045;-69
2022/04/24 03:43:13;;;;;;;6.32;4.03;;;;;;;7.84;100.00;94919.84;5021551;28;20535;-69
2022/04/24 03:45:38;;;;;;;9.98;4.20;;;;;;;7.77;100.00;94912.13;5022625;28;20063;-71
2022/04/24 03:48:04;;;;;;;5.85;4.00;;;;;;;7.74;100.00;94914.53;5023727;28;20316;-69
2022/04/24 03:50:30;;;;;;;6.30;4.30;;;;;;;7.74;100.00;94914.53;5022721;28;20640;-70
2022/04/24 03:52:55;;;;;;;7.00;4.53;;;;;;;7.77;100.00;94916.66;5026058;28;20049;-69
2022/04/24 03:55:20;;;;;;;7.22;4.43;;;;;;;7.72;100.00;94908.69;5022431;28;20658;-71
2022/04/24 03:57:46;;;;;;;6.40;4.30;;;;;;;7.75;100.00;94913.47;5022874;28;20470;-71
2022/04/24 04:00:12;;;;;;;7.22;4.65;;;;;;;7.74;100.00;94919.84;5020914;28;20049;-70
2022/04/24 04:02:42;;;;;;;7.57;4.70;;;;;;;7.70;100.00;94919.56;5024269;28;20049;-71
2022/04/24 04:05:08;;;;;;;7.28;4.30;;;;;;;7.71;100.00;94921.19;5026622;28;20143;-70
2022/04/24 04:07:34;;;;;;;6.70;4.35;;;;;;;7.66;100.00;94915.06;5024406;28;20472;-69
2022/04/24 04:10:00;;;;;;;8.80;4.82;;;;;;;7.63;100.00;94928.94;5024251;28;20040;-71
2022/04/24 04:12:29;;;;;;;7.10;4.80;;;;;;;7.64;100.00;94923.31;5019595;28;20049;-70
2022/04/24 04:14:54;;;;;;;9.85;5.03;;;;;;;7.62;100.00;94924.63;5026607;28;20391;-70
2022/04/24 04:17:19;;;;;;;7.45;5.03;;;;;;;7.64;100.00;94920.66;5021893;28;20048;-71
2022/04/24 04:19:45;;;;;;;9.02;4.57;;;;;;;7.68;100.00;94923.56;5021485;28;20041;-71
2022/04/24 04:22:10;;;;;;;7.18;4.93;;;;;;;7.66;100.00;94917.72;5028129;28;20578;-70
2022/04/24 04:24:36;;;;;;;7.25;4.80;;;;;;;7.64;100.00;94920.66;5023943;28;20045;-70
2022/04/24 04:27:03;;;;;;;8.57;4.93;;;;;;;7.62;100.00;94924.63;5021129;28;20587;-71
2022/04/24 04:29:29;;;;;;;7.45;5.05;;;;;;;7.59;100.00;94923.31;5021894;28;20456;-70
2022/04/24 04:31:55;;;;;;;6.93;4.78;;;;;;;7.57;100.00;94925.47;5022148;28;20424;-70
2022/04/24 04:34:20;;;;;;;7.72;5.00;;;;;;;7.50;100.00;94917.72;5035975;28;20041;-71
2022/04/24 04:36:46;;;;;;;8.80;5.20;;;;;;;7.51;100.00;94919.31;5021218;28;20443;-70
2022/04/24 04:39:12;;;;;;;7.43;4.90;;;;;;;7.51;100.00;94915.88;5024546;28;20132;-70
2022/04/24 04:41:37;;;;;;;12.32;5.82;;;;;;;7.57;100.00;94924.66;5020025;28;20120;-71
2022/04/24 04:44:03;;;;;;;6.53;4.50;;;;;;;7.61;100.00;94926.50;5019858;28;20072;-71
2022/04/24 04:46:28;;;;;;;11.73;5.03;;;;;;;7.61;100.00;94928.38;5023808;28;20763;-70
2022/04/24 04:48:54;;;;;;;6.88;4.75;;;;;;;7.55;100.00;94930.25;5022440;28;20060;-70
2022/04/24 04:51:19;;;;;;;7.75;5.70;;;;;;;7.51;100.00;94929.97;5018958;28;20052;-69
2022/04/24 04:53:45;;;;;;;7.53;5.10;;;;;;;7.51;100.00;94927.31;5024099;28;20042;-70
2022/04/24 04:56:10;;;;;;;8.30;5.13;;;;;;;7.53;100.00;94941.16;5021226;28;20578;-70
2022/04/24 04:58:36;;;;;;;8.77;5.40;;;;;;;7.60;100.00;94938.22;5023451;28;20136;-70
2022/04/24 05:01:02;;;;;;;7.57;5.20;;;;;;;7.64;100.00;94939.31;5020347;28;20500;-70
2022/04/24 05:03:27;;;;;;;7.57;5.03;;;;;;;7.75;100.00;94937.44;5022596;28;20192;-70
2022/04/24 05:05:53;;;;;;;8.07;5.22;;;;;;;7.83;100.00;94934.22;5022208;28;20404;-71
2022/04/24 05:08:18;;;;;;;9.43;5.25;;;;;;;7.80;100.00;94938.22;5022719;28;20060;-70
2022/04/24 05:10:44;;;;;;;8.43;4.93;;;;;;;7.87;100.00;94939.84;5021998;28;20033;-70
2022/04/24 05:13:10;;;;;;;8.20;5.15;;;;;;;7.91;100.00;94940.88;5022953;28;20068;-70
2022/04/24 05:15:35;;;;;;;8.95;5.85;;;;;;;7.93;100.00;94930.75;5024786;28;20056;-70
2022/04/24 05:18:01;;;;;;;8.88;5.70;;;;;;;7.98;100.00;94936.88;5024070;28;20030;-69
2022/04/24 05:20:26;;;;;;;10.32;5.70;;;;;;;8.03;100.00;94939.53;5019898;28;20045;-69
2022/04/24 05:23:05;;;;;;;8.70;5.30;;;;;;;8.03;100.00;94936.06;5023972;28;20037;-70
2022/04/24 05:25:30;;;;;;;10.57;5.53;;;;;;;8.00;100.00;94942.72;5023889;28;20041;-71
2022/04/24 05:27:56;;;;;;;9.10;5.65;;;;;;;8.03;100.00;94938.75;5027040;28;20146;-70
2022/04/24 05:30:23;;;;;;;8.50;5.78;;;;;;;8.13;100.00;94943.25;5024446;28;20147;-71
2022/04/24 05:32:50;;;;;;;9.75;5.47;;;;;;;8.04;100.00;94951.78;5025897;28;20037;-70
2022/04/24 05:35:16;;;;;;;9.15;5.40;;;;;;;8.16;100.00;94951.50;5026783;28;20087;-69
2022/04/24 05:37:42;;;;;;;8.55;6.18;;;;;;;8.16;100.00;94958.69;5025282;28;20033;-69
2022/04/24 05:40:09;;;;;;;10.05;6.45;;;;;;;8.17;100.00;94955.78;5024527;28;20196;-71
2022/04/24 05:42:34;;;;;;;9.18;5.78;;;;;;;8.16;100.00;94958.69;5025095;28;20194;-70
2022/04/24 05:45:01;;;;;;;8.88;6.10;;;;;;;8.24;100.00;94966.13;5025049;28;20041;-70
2022/04/24 05:47:27;;;;;;;10.65;6.43;;;;;;;8.35;100.00;94975.75;5026676;28;20044;-71
2022/04/24 05:49:53;;;;;;;8.70;5.80;;;;;;;8.39;100.00;94979.47;5023778;28;20149;-70
2022/04/24 05:52:18;;;;;;;10.27;6.28;;;;;;;8.50;100.00;94986.38;5022045;28;20056;-69
2022/04/24 05:54:44;;;;;;;9.35;6.20;;;;;;;8.57;100.00;94980.75;5024073;28;20032;-69
2022/04/24 05:57:09;;;;;;;8.48;5.57;;;;;;;8.67;100.00;94987.94;5027382;28;20318;-69
2022/04/24 05:59:35;;;;;;;10.70;6.05;;;;;;;8.50;100.00;95005.03;5025319;28;20116;-71
2022/04/24 06:02:00;;;;;;;8.57;5.68;;;;;;;8.42;100.00;95005.59;5023106;28;20068;-71
2022/04/24 06:04:27;;;;;;;8.60;5.88;;;;;;;8.44;100.00;95008.78;5025296;28;20041;-69
2022/04/24 06:06:52;;;;;;;9.77;6.47;;;;;;;8.45;100.00;94997.03;5022934;28;20124;-69
2022/04/24 06:09:18;;;;;;;9.75;6.75;;;;;;;8.64;100.00;94999.94;5024471;28;20107;-69
2022/04/24 06:11:44;;;;;;;8.57;6.30;;;;;;;8.63;100.00;95001.78;5026847;28;20033;-70
2022/04/24 06:14:09;;;;;;;9.98;6.20;;;;;;;8.58;100.00;94998.34;5032192;28;20439;-69
2022/04/24 06:16:36;;;;;;;8.77;5.32;;;;;;;8.38;100.00;94997.31;5022926;28;20028;-69
2022/04/24 06:19:02;;;;;;;9.60;6.18;;;;;;;8.42;100.00;94996.81;5023559;28;20041;-69
2022/04/24 06:21:27;;;;;;;12.02;6.07;;;;;;;8.47;100.00;94996.75;5025604;28;20535;-69
2022/04/24 06:23:53;;;;;;;10.02;6.22;;;;;;;8.49;100.00;94998.13;5022193;28;20049;-70
2022/04/24 06:26:18;;;;;;;8.95;6.25;;;;;;;8.59;100.00;94998.09;5026142;28;20060;-69
2022/04/24 06:28:44;;;;;;;8.75;6.32;;;;;;;8.54;100.00;94999.94;5024632;28;20372;-70
2022/04/24 06:31:09;;;;;;;11.27;6.43;;;;;;;8.62;100.00;94994.84;5023830;28;20404;-69
2022/04/24 06:33:35;;;;;;;10.90;7.10;;;;;;;8.64;100.00;94991.94;5025158;28;20029;-70
2022/04/24 06:36:02;;;;;;;10.20;6.70;;;;;;;8.64;100.00;94983.94;5025726;28;20115;-69
2022/04/24 06:38:28;;;;;;;10.80;7.05;;;;;;;8.74;100.00;94993.78;5029610;28;20047;-70
2022/04/24 06:40:54;;;;;;;10.48;6.95;;;;;;;8.74;100.00;94985.78;5025852;28;20041;-71
2022/04/24 06:43:19;;;;;;;12.07;7.03;;;;;;;8.76;100.00;94984.41;5022573;28;20044;-70
2022/04/24 06:45:45;;;;;;;11.15;6.95;;;;;;;8.75;100.00;94995.38;4679252;28;10000529;-70
2022/04/24 06:48:13;;;;;;;11.20;7.20;;;;;;;8.82;100.00;94988.69;5020295;28;20045;-70
2022/04/24 06:50:41;;;;;;;12.00;6.55;;;;;;;8.99;100.00;94982.19;5023125;28;20049;-70
2022/04/24 06:53:16;;;;;;;9.38;6.50;;;;;;;9.17;100.00;94986.91;5023868;28;20056;-71
2022/04/24 06:55:43;;;;;;;10.10;7.03;;;;;;;9.32;100.00;94986.03;5019101;28;20127;-70
2022/04/24 06:58:10;;;;;;;10.68;6.68;;;;;;;9.45;100.00;94977.41;5022464;28;20405;-69
2022/04/24 07:00:38;;;;;;;10.95;6.28;;;;;;;9.66;100.00;94978.88;5020834;28;20044;-71
2022/04/24 07:03:16;;;;;;;10.55;6.75;;;;;;;9.65;100.00;94968.47;5024246;28;20083;-69
2022/04/24 07:05:42;;;;;;;10.07;6.53;;;;;;;9.72;100.00;94975.09;5020575;28;20060;-70
2022/04/24 07:08:08;;;;;;;9.70;6.43;;;;;;;9.91;100.00;94971.75;5054651;28;20497;-71
2022/04/24 07:10:34;;;;;;;9.63;6.65;;;;;;;10.04;100.00;94965.78;5021874;28;20140;-70
2022/04/24 07:13:00;;;;;;;12.32;6.80;;;;;;;10.05;100.00;94959.34;5022779;28;20379;-71
2022/04/24 07:15:29;;;;;;;9.95;6.65;;;;;;;10.15;100.00;94969.94;5021431;28;20052;-69
2022/04/24 07:17:56;;;;;;;9.85;7.07;;;;;;;10.14;100.00;94963.00;5024496;28;20130;-71
2022/04/24 07:20:22;;;;;;;10.80;7.05;;;;;;;10.16;100.00;94960.03;5020729;28;20045;-69
2022/04/24 07:22:53;;;;;;;11.13;7.03;;;;;;;10.12;100.00;94951.00;5023889;28;20036;-70
2022/04/24 07:25:21;;;;;;;10.80;6.55;;;;;;;10.17;100.00;94970.44;5020600;28;20115;-70
2022/04/24 07:27:47;;;;;;;12.57;6.65;;;;;;;10.15;100.00;94969.13;5023971;28;20029;-69
2022/04/24 07:30:14;;;;;;;9.65;6.70;;;;;;;10.26;100.00;94967.97;5020342;28;20098;-69
2022/04/24 07:32:50;;;;;;;10.55;6.80;;;;;;;10.27;100.00;94970.41;5021089;28;20029;-71
2022/04/24 07:35:18;;;;;;;10.93;6.93;;;;;;;10.30;100.00;94969.81;5022820;28;20045;-69
2022/04/24 07:37:44;;;;;;;10.23;7.10;;;;;;;10.48;100.00;94962.16;5024603;28;20029;-69
2022/04/24 07:40:12;;;;;;;8.88;6.43;;;;;;;10.58;100.00;94970.06;5021091;28;20048;-70
2022/04/24 07:42:57;;;;;;;10.02;6.53;;;;;;;10.60;100.00;94970.59;5021350;28;20038;-70
2022/04/24 07:45:44;;;;;;;16.25;7.13;;;;;;;10.74;100.00;94968.00;5019754;28;20491;-71
2022/04/24 07:48:11;;;;;;;11.35;6.97;;;;;;;10.82;100.00;94970.88;5021055;28;20057;-71
2022/04/24 07:50:39;;;;;;;12.40;7.22;;;;;;;10.84;100.00;94965.25;5021091;28;20032;-70
2022/04/24 07:53:06;;;;;;;12.80;7.05;;;;;;;10.94;100.00;94965.09;5021092;28;20464;-71
2022/04/24 07:55:31;;;;;;;11.65;6.85;;;;;;;11.00;100.00;94961.28;5020632;28;20029;-71
2022/04/24 07:57:58;;;;;;;11.43;7.40;;;;;;;11.10;100.00;94958.47;5024783;28;20115;-70
2022/04/24 08:00:25;;;;;;;10.57;7.13;;;;;;;11.13;100.00;94968.63;5020445;28;20429;-70
2022/04/24 08:02:54;;;;;;;12.15;7.32;;;;;;;11.20;100.00;94965.56;5022690;28;20401;-70
2022/04/24 08:05:20;;;;;;;11.23;7.30;;;;;;;11.14;100.00;94966.75;5019933;28;20037;-69
2022/04/24 08:07:46;;;;;;;13.43;7.50;;;;;;;11.12;100.00;94969.69;5020870;28;20037;-69
2022/04/24 08:10:12;;;;;;;11.95;7.45;;;;;;;11.26;100.00;94979.69;5022033;28;20487;-70
2022/04/24 08:12:37;;;;;;;13.00;8.13;;;;;;;11.32;100.00;94971.31;5023601;28;20064;-71
2022/04/24 08:15:03;;;;;;;12.50;7.60;;;;;;;11.31;100.00;94959.00;5014818;28;20125;-71
2022/04/24 08:17:28;;;;;;;9.65;6.93;;;;;;;11.55;100.00;94966.97;5021572;28;20045;-70
2022/04/24 08:19:54;;;;;;;10.15;6.82;;;;;;;11.68;100.00;94965.47;5013817;28;20136;-70
2022/04/24 08:22:19;;;;;;;17.33;7.75;;;;;;;11.75;99.28;94957.84;5510405;22;20049;-78
2022/04/24 08:24:45;;;;;;;11.45;6.28;;;;;;;11.91;99.84;94964.59;5040936;28;20044;-79
2022/04/24 08:27:10;;;;;;;10.40;6.70;;;;;;;11.97;100.00;94970.63;5030247;28;20040;-78
2022/04/24 08:29:36;;;;;;;9.77;7.05;;;;;;;12.09;99.23;94971.00;5028396;28;20033;-78
2022/04/24 08:32:02;;;;;;;12.48;7.57;;;;;;;12.19;99.52;94956.63;5044112;28;20049;-79
2022/04/24 08:34:27;;;;;;;12.57;7.78;;;;;;;12.34;98.46;94969.75;5030196;28;20029;-79
2022/04/24 08:36:53;;;;;;;10.30;7.57;;;;;;;12.27;99.25;94962.09;5031588;28;20036;-79
2022/04/24 08:39:18;;;;;;;14.50;7.00;;;;;;;12.32;97.66;94963.09;5056349;23;20057;-72
2022/04/24 08:47:19;;;;;;;11.07;7.20;;;;;;;12.37;97.88;94979.88;4912411;28;20066;-70
2022/04/24 09:54:08;;;;;;;7.50;4.72;;;;;;;14.68;65.40;94999.63;2399351;23;20349;31
2022/04/24 09:56:33;;;;;;;7.07;4.53;;;;;;;14.19;72.33;95012.16;4974370;28;20539;-70
2022/04/24 09:58:59;;;;;;;8.07;4.88;;;;;;;14.49;75.40;95007.94;4980218;28;20121;-71
2022/04/24 10:01:29;;;;;;;7.25;4.65;;;;;;;14.39;70.36;95016.22;4979521;28;20137;-70
2022/04/24 10:03:55;;;;;;;7.43;4.88;;;;;;;14.47;69.63;95012.03;4978752;28;20147;-72
2022/04/24 10:06:22;;;;;;;8.02;5.47;;;;;;;14.28;67.53;95016.78;4976625;28;20038;-71
2022/04/24 10:08:50;;;;;;;8.10;5.10;;;;;;;13.97;66.50;95016.72;4980320;28;20550;-70
2022/04/24 10:11:16;;;;;;;8.35;4.90;;;;;;;14.07;71.83;95021.84;4982257;28;20042;-71
2022/04/24 10:13:45;;;;;;;8.40;5.10;;;;;;;14.18;68.97;95017.84;4983817;28;20669;-70
2022/04/24 10:17:08;;;;;;;7.38;4.97;;;;;;;13.97;66.25;95017.50;4983166;28;20149;-70
2022/04/24 10:19:45;;;;;;;8.05;5.00;;;;;;;14.21;71.17;95028.78;4961928;28;20097;-71
2022/04/24 10:22:37;;;;;;;6.90;5.03;;;;;;;13.99;71.71;95026.06;4981611;28;20042;-71
2022/04/24 10:25:04;;;;;;;7.18;5.00;;;;;;;13.75;71.31;95030.91;4985697;28;20046;-72
2022/04/24 10:27:37;;;;;;;7.85;5.00;;;;;;;13.74;71.49;95034.72;4983450;28;20076;-72
2022/04/24 10:30:04;;;;;;;8.55;5.32;;;;;;;14.08;72.44;95028.81;4981847;28;20046;-71
2022/04/24 10:32:31;;;;;;;8.10;5.25;;;;;;;13.97;72.16;95036.34;4983249;28;20083;-70
2022/04/24 10:35:00;;;;;;;8.00;5.10;;;;;;;14.32;72.31;95031.22;4980192;28;20057;-71
2022/04/24 10:37:31;;;;;;;8.85;5.25;;;;;;;14.58;69.45;95034.91;4982969;28;20419;-71
2022/04/24 10:40:00;;;;;;;9.63;5.83;;;;;;;15.07;66.76;95027.69;4985146;28;20054;-72
2022/04/24 10:42:30;;;;;;;10.57;8.13;;;;;;;15.15;62.80;95026.94;4983163;28;20719;-71
2022/04/24 10:45:07;;;;;;;7.28;5.10;;;;;;;14.90;66.21;95038.41;4983064;28;20049;-70
2022/04/24 10:47:55;;;;;;;8.27;5.82;;;;;;;15.11;66.43;95023.28;4982296;28;20034;-70
2022/04/24 10:50:22;;;;;;;9.38;6.10;;;;;;;14.87;64.62;95028.25;4982253;28;20089;-72
2022/04/24 10:52:53;;;;;;;7.95;5.32;;;;;;;14.56;65.72;95041.72;4984333;28;20034;-70
2022/04/24 10:55:25;;;;;;;7.32;5.30;;;;;;;14.94;66.79;95042.03;4979830;28;20046;-70
2022/04/24 10:58:00;;;;;;;9.30;5.57;;;;;;;14.72;66.69;95043.69;4978913;28;20824;-72
2022/04/24 11:00:34;;;;;;;8.02;5.35;;;;;;;14.47;65.62;95041.63;4980175;28;20044;-70
2022/04/24 11:03:13;;;;;;;8.02;5.68;;;;;;;14.10;67.02;95048.94;5000059;28;20400;-70
2022/04/24 11:05:41;;;;;;;8.35;5.60;;;;;;;13.95;67.34;95052.00;4983869;28;20125;-71
2022/04/24 11:08:08;;;;;;;8.95;5.50;;;;;;;14.05;69.43;95048.25;4982609;28;20049;-72
2022/04/24 11:10:43;;;;;;;7.63;5.13;;;;;;;14.16;70.70;95038.84;4982961;28;20042;-70
2022/04/24 11:13:12;;;;;;;11.82;5.25;;;;;;;13.98;68.85;95043.31;4982099;28;20050;-70
2022/04/24 11:15:44;;;;;;;9.38;5.05;;;;;;;13.52;68.22;95036.22;4982596;28;20096;-70
2022/04/24 11:18:24;;;;;;;9.00;5.40;;;;;;;13.33;72.17;95049.00;4980343;28;20458;-70
2022/04/24 11:20:54;;;;;;;8.52;5.53;;;;;;;13.36;70.20;95051.09;4980029;28;20049;-69
2022/04/24 11:23:21;;;;;;;8.60;5.73;;;;;;;13.35;73.81;95050.28;4623891;28;10000920;-71
2022/04/24 11:25:47;;;;;;;9.90;5.55;;;;;;;13.43;70.82;95042.63;4979963;28;20038;-70
2022/04/24 11:28:15;;;;;;;7.20;4.53;;;;;;;13.24;75.03;95043.53;4980556;28;20100;-69
2022/04/24 11:30:41;;;;;;;8.73;5.13;;;;;;;13.51;73.73;95049.97;4981097;28;20049;-70
2022/04/24 11:33:08;;;;;;;7.80;5.43;;;;;;;13.52;74.11;95049.66;4980971;28;20405;-70
2022/04/24 11:35:36;;;;;;;10.52;5.35;;;;;;;13.87;74.68;95050.03;4979127;28;20563;-72
2022/04/24 11:38:07;;;;;;;7.15;5.25;;;;;;;13.78;73.84;95054.53;4981236;28;20360;-72
2022/04/24 11:40:35;;;;;;;7.78;5.32;;;;;;;13.83;73.68;95049.81;4979072;28;20120;-70
2022/04/24 11:43:07;;;;;;;8.20;5.57;;;;;;;14.04;69.95;95052.06;4979898;28;20038;-70
2022/04/24 11:51:15;;;;;;;8.65;5.45;;;;;;;14.68;72.92;95058.06;4977257;28;20040;-71
2022/04/24 11:53:42;;;;;;;10.65;5.80;;;;;;;15.02;64.36;95068.25;4978215;28;20566;-70
2022/04/24 11:56:07;;;;;;;11.18;5.38;;;;;;;15.15;65.55;95055.78;4975118;28;20061;-70
2022/04/24 11:58:38;;;;;;;8.02;5.22;;;;;;;14.94;64.13;95063.59;4976087;28;20046;-70
2022/04/24 12:01:07;;;;;;;8.43;4.72;;;;;;;15.18;72.18;95069.44;4976498;28;20130;-70
2022/04/24 12:03:35;;;;;;;12.73;5.63;;;;;;;15.25;64.27;95071.66;4977691;28;20045;-70
2022/04/24 12:06:07;;;;;;;6.68;4.90;;;;;;;15.37;63.42;95060.31;4979295;28;20046;-70
2022/04/24 12:08:46;;;;;;;7.85;5.70;;;;;;;15.55;61.48;95072.72;4978681;28;20046;-71
2022/04/24 12:11:28;;;;;;;10.32;5.72;;;;;;;15.55;62.53;95064.63;4978814;28;20053;-71
2022/04/24 12:14:26;;;;;;;9.15;5.30;;;;;;;15.69;57.58;95075.31;4977668;28;20042;-72
2022/04/24 12:16:55;;;;;;;9.40;5.57;;;;;;;15.93;59.28;95059.50;4978016;28;20069;-70
2022/04/24 12:19:21;;;;;;;7.97;5.28;;;;;;;16.12;56.12;95072.69;4981624;28;20053;-70
2022/04/24 12:21:48;;;;;;;7.53;5.10;;;;;;;16.40;55.97;95065.06;4981473;28;20039;-70
2022/04/24 12:24:15;;;;;;;10.30;5.35;;;;;;;16.49;51.80;95075.84;4977765;28;20034;-71
2022/04/24 12:26:47;;;;;;;8.52;5.13;;;;;;;16.15;52.91;95074.75;4982581;28;20046;-70
2022/04/24 12:29:13;;;;;;;7.40;5.25;;;;;;;16.32;57.66;95071.25;4979539;28;20104;-72
2022/04/24 12:31:38;;;;;;;7.20;5.20;;;;;;;16.94;53.15;95068.97;4980037;28;20038;-71
2022/04/24 12:34:04;;;;;;;8.35;5.40;;;;;;;17.52;50.00;95072.91;4980126;28;20084;-70
2022/04/24 12:36:29;;;;;;;7.65;5.38;;;;;;;17.53;49.75;95077.19;4981520;28;20064;-71
2022/04/24 12:39:06;;;;;;;8.35;5.57;;;;;;;17.23;50.13;95078.28;4982039;28;20121;-70
2022/04/24 12:41:36;;;;;;;7.32;5.20;;;;;;;16.74;51.19;95085.09;4980526;28;20504;-70
2022/04/24 12:44:04;;;;;;;7.75;5.28;;;;;;;16.40;51.45;95084.75;4982511;28;20053;-72
2022/04/24 12:46:34;;;;;;;7.32;5.20;;;;;;;16.24;50.73;95080.94;4980263;28;20030;-71
2022/04/24 12:49:02;;;;;;;7.88;5.88;;;;;;;16.39;50.12;95088.56;4980014;28;20440;-71